sensor_id;sensor_type;location;lat;lon;timestamp;P1;durP1;ratioP1;P2;durP2;ratioP2
42978;SDS011;28616;44.746;19.678;2023-04-25T00:08:18;9.73;;;6.03;;
42978;SDS011;28616;44.746;19.678;2023-04-25T00:11:25;9.55;;;5.25;;
42978;SDS011;28616;44.746;19.678;2023-04-25T00:17:30;7.78;;;5.00;;
42978;SDS011;28616;44.746;19.678;2023-04-25T00:22:58;13.25;;;7.25;;
42978;SDS011;28616;44.746;19.678;2023-04-25T00:26:19;13.40;;;6.53;;
42978;SDS011;28616;44.746;19.678;2023-04-25T00:29:14;16.35;;;7.47;;
42978;SDS011;28616;44.746;19.678;2023-04-25T00:31:47;21.13;;;8.73;;
42978;SDS011;28616;44.746;19.678;2023-04-25T00:34:13;12.85;;;7.50;;
42978;SDS011;28616;44.746;19.678;2023-04-25T00:36:39;10.60;;;6.97;;
42978;SDS011;28616;44.746;19.678;2023-04-25T00:39:05;30.58;;;12.13;;
42978;SDS011;28616;44.746;19.678;2023-04-25T00:41:31;9.45;;;6.25;;
42978;SDS011;28616;44.746;19.678;2023-04-25T00:43:58;36.75;;;13.55;;
42978;SDS011;28616;44.746;19.678;2023-04-25T00:46:25;18.40;;;7.82;;
42978;SDS011;28616;44.746;19.678;2023-04-25T00:48:54;26.95;;;10.48;;
42978;SDS011;28616;44.746;19.678;2023-04-25T00:51:20;12.50;;;7.40;;
42978;SDS011;28616;44.746;19.678;2023-04-25T00:53:47;7.75;;;5.10;;
42978;SDS011;28616;44.746;19.678;2023-04-25T00:56:14;10.15;;;6.47;;
42978;SDS011;28616;44.746;19.678;2023-04-25T00:58:41;8.70;;;6.10;;
42978;SDS011;28616;44.746;19.678;2023-04-25T01:01:08;6.60;;;5.13;;
42978;SDS011;28616;44.746;19.678;2023-04-25T01:03:35;6.07;;;4.97;;
42978;SDS011;28616;44.746;19.678;2023-04-25T01:06:07;6.07;;;4.90;;
42978;SDS011;28616;44.746;19.678;2023-04-25T01:08:34;5.25;;;4.75;;
42978;SDS011;28616;44.746;19.678;2023-04-25T01:11:01;6.95;;;5.28;;
42978;SDS011;28616;44.746;19.678;2023-04-25T01:13:26;5.47;;;4.93;;
42978;SDS011;28616;44.746;19.678;2023-04-25T01:15:53;5.72;;;4.40;;
42978;SDS011;28616;44.746;19.678;2023-04-25T01:18:18;5.00;;;4.43;;
42978;SDS011;28616;44.746;19.678;2023-04-25T01:20:46;4.28;;;3.85;;
42978;SDS011;28616;44.746;19.678;2023-04-25T01:23:12;5.40;;;4.90;;
42978;SDS011;28616;44.746;19.678;2023-04-25T01:25:38;5.30;;;4.22;;
42978;SDS011;28616;44.746;19.678;2023-04-25T01:28:05;4.57;;;4.10;;
42978;SDS011;28616;44.746;19.678;2023-04-25T01:30:31;6.10;;;4.40;;
42978;SDS011;28616;44.746;19.678;2023-04-25T01:32:57;4.53;;;4.13;;
42978;SDS011;28616;44.746;19.678;2023-04-25T01:35:24;7.97;;;4.25;;
42978;SDS011;28616;44.746;19.678;2023-04-25T01:37:50;5.68;;;4.30;;
42978;SDS011;28616;44.746;19.678;2023-04-25T01:40:17;4.93;;;4.18;;
42978;SDS011;28616;44.746;19.678;2023-04-25T01:42:44;5.63;;;4.47;;
42978;SDS011;28616;44.746;19.678;2023-04-25T01:45:10;4.68;;;4.28;;
42978;SDS011;28616;44.746;19.678;2023-04-25T01:47:37;6.30;;;5.10;;
42978;SDS011;28616;44.746;19.678;2023-04-25T01:50:08;5.53;;;5.03;;
42978;SDS011;28616;44.746;19.678;2023-04-25T01:52:34;8.18;;;4.32;;
42978;SDS011;28616;44.746;19.678;2023-04-25T01:55:03;5.03;;;4.50;;
42978;SDS011;28616;44.746;19.678;2023-04-25T01:57:31;5.15;;;4.63;;
42978;SDS011;28616;44.746;19.678;2023-04-25T01:59:58;5.28;;;4.78;;
42978;SDS011;28616;44.746;19.678;2023-04-25T02:02:26;5.72;;;5.15;;
42978;SDS011;28616;44.746;19.678;2023-04-25T02:04:52;5.65;;;5.15;;
42978;SDS011;28616;44.746;19.678;2023-04-25T02:07:19;6.15;;;4.72;;
42978;SDS011;28616;44.746;19.678;2023-04-25T02:09:45;5.50;;;5.00;;
42978;SDS011;28616;44.746;19.678;2023-04-25T02:12:11;5.72;;;5.20;;
42978;SDS011;28616;44.746;19.678;2023-04-25T02:14:37;5.60;;;5.10;;
42978;SDS011;28616;44.746;19.678;2023-04-25T02:17:03;6.13;;;5.53;;
42978;SDS011;28616;44.746;19.678;2023-04-25T02:19:29;5.30;;;4.80;;
42978;SDS011;28616;44.746;19.678;2023-04-25T02:21:55;5.53;;;5.03;;
42978;SDS011;28616;44.746;19.678;2023-04-25T02:24:22;5.80;;;5.32;;
42978;SDS011;28616;44.746;19.678;2023-04-25T02:26:48;6.50;;;5.90;;
42978;SDS011;28616;44.746;19.678;2023-04-25T02:29:14;5.63;;;5.13;;
42978;SDS011;28616;44.746;19.678;2023-04-25T02:31:41;6.22;;;5.57;;
42978;SDS011;28616;44.746;19.678;2023-04-25T02:34:07;6.10;;;5.55;;
42978;SDS011;28616;44.746;19.678;2023-04-25T02:36:33;5.90;;;5.40;;
42978;SDS011;28616;44.746;19.678;2023-04-25T02:39:00;6.00;;;5.50;;
42978;SDS011;28616;44.746;19.678;2023-04-25T02:41:28;6.13;;;5.53;;
42978;SDS011;28616;44.746;19.678;2023-04-25T02:43:54;10.68;;;6.47;;
42978;SDS011;28616;44.746;19.678;2023-04-25T02:46:20;8.93;;;6.40;;
42978;SDS011;28616;44.746;19.678;2023-04-25T02:48:45;7.70;;;6.90;;
42978;SDS011;28616;44.746;19.678;2023-04-25T02:51:11;6.88;;;6.28;;
42978;SDS011;28616;44.746;19.678;2023-04-25T02:53:37;6.95;;;6.25;;
42978;SDS011;28616;44.746;19.678;2023-04-25T02:56:03;7.13;;;6.03;;
42978;SDS011;28616;44.746;19.678;2023-04-25T02:58:29;6.72;;;6.13;;
42978;SDS011;28616;44.746;19.678;2023-04-25T03:00:55;6.47;;;5.88;;
42978;SDS011;28616;44.746;19.678;2023-04-25T03:03:21;6.07;;;5.25;;
42978;SDS011;28616;44.746;19.678;2023-04-25T03:05:48;5.88;;;5.28;;
42978;SDS011;28616;44.746;19.678;2023-04-25T03:08:15;6.85;;;6.15;;
42978;SDS011;28616;44.746;19.678;2023-04-25T03:10:41;7.13;;;6.03;;
42978;SDS011;28616;44.746;19.678;2023-04-25T03:13:07;6.65;;;4.95;;
42978;SDS011;28616;44.746;19.678;2023-04-25T03:15:33;4.97;;;4.57;;
42978;SDS011;28616;44.746;19.678;2023-04-25T03:17:59;5.75;;;5.20;;
42978;SDS011;28616;44.746;19.678;2023-04-25T03:20:25;5.63;;;5.13;;
42978;SDS011;28616;44.746;19.678;2023-04-25T03:22:51;6.10;;;5.55;;
42978;SDS011;28616;44.746;19.678;2023-04-25T03:25:17;5.40;;;5.00;;
42978;SDS011;28616;44.746;19.678;2023-04-25T03:27:43;5.57;;;5.07;;
42978;SDS011;28616;44.746;19.678;2023-04-25T03:30:08;5.80;;;5.30;;
42978;SDS011;28616;44.746;19.678;2023-04-25T03:32:34;5.45;;;5.07;;
42978;SDS011;28616;44.746;19.678;2023-04-25T03:35:00;5.13;;;4.82;;
42978;SDS011;28616;44.746;19.678;2023-04-25T03:37:26;5.30;;;4.80;;
42978;SDS011;28616;44.746;19.678;2023-04-25T03:39:54;5.00;;;4.70;;
42978;SDS011;28616;44.746;19.678;2023-04-25T03:42:20;4.85;;;4.55;;
42978;SDS011;28616;44.746;19.678;2023-04-25T03:44:48;4.78;;;4.47;;
42978;SDS011;28616;44.746;19.678;2023-04-25T03:47:15;4.85;;;4.53;;
42978;SDS011;28616;44.746;19.678;2023-04-25T03:49:41;4.63;;;4.32;;
42978;SDS011;28616;44.746;19.678;2023-04-25T03:52:07;4.40;;;4.10;;
42978;SDS011;28616;44.746;19.678;2023-04-25T03:54:35;4.47;;;4.18;;
42978;SDS011;28616;44.746;19.678;2023-04-25T03:57:09;5.47;;;5.03;;
42978;SDS011;28616;44.746;19.678;2023-04-25T03:59:35;5.50;;;4.68;;
42978;SDS011;28616;44.746;19.678;2023-04-25T04:02:01;5.22;;;4.93;;
42978;SDS011;28616;44.746;19.678;2023-04-25T04:04:31;4.70;;;4.40;;
42978;SDS011;28616;44.746;19.678;2023-04-25T04:06:57;5.15;;;4.85;;
42978;SDS011;28616;44.746;19.678;2023-04-25T04:09:23;5.00;;;4.60;;
42978;SDS011;28616;44.746;19.678;2023-04-25T04:11:50;5.40;;;5.00;;
42978;SDS011;28616;44.746;19.678;2023-04-25T04:14:18;5.20;;;4.85;;
42978;SDS011;28616;44.746;19.678;2023-04-25T04:16:44;5.80;;;5.38;;
42978;SDS011;28616;44.746;19.678;2023-04-25T04:19:10;6.10;;;5.60;;
42978;SDS011;28616;44.746;19.678;2023-04-25T04:21:36;5.60;;;5.20;;
42978;SDS011;28616;44.746;19.678;2023-04-25T04:24:04;5.70;;;5.30;;
42978;SDS011;28616;44.746;19.678;2023-04-25T04:26:36;5.28;;;4.88;;
42978;SDS011;28616;44.746;19.678;2023-04-25T04:29:02;6.13;;;5.53;;
42978;SDS011;28616;44.746;19.678;2023-04-25T04:31:28;6.45;;;5.95;;
42978;SDS011;28616;44.746;19.678;2023-04-25T04:33:55;6.65;;;6.03;;
42978;SDS011;28616;44.746;19.678;2023-04-25T04:36:21;9.05;;;5.90;;
42978;SDS011;28616;44.746;19.678;2023-04-25T04:38:48;6.63;;;6.00;;
42978;SDS011;28616;44.746;19.678;2023-04-25T04:41:17;6.07;;;5.60;;
42978;SDS011;28616;44.746;19.678;2023-04-25T04:43:44;6.13;;;5.63;;
42978;SDS011;28616;44.746;19.678;2023-04-25T04:46:10;6.65;;;6.15;;
42978;SDS011;28616;44.746;19.678;2023-04-25T04:48:37;7.72;;;6.05;;
42978;SDS011;28616;44.746;19.678;2023-04-25T04:51:06;6.65;;;6.15;;
42978;SDS011;28616;44.746;19.678;2023-04-25T04:53:31;11.40;;;6.75;;
42978;SDS011;28616;44.746;19.678;2023-04-25T04:56:00;6.63;;;6.13;;
42978;SDS011;28616;44.746;19.678;2023-04-25T04:58:26;6.80;;;6.10;;
42978;SDS011;28616;44.746;19.678;2023-04-25T05:00:54;7.05;;;6.47;;
42978;SDS011;28616;44.746;19.678;2023-04-25T05:03:20;7.15;;;6.30;;
42978;SDS011;28616;44.746;19.678;2023-04-25T05:05:46;6.40;;;5.90;;
42978;SDS011;28616;44.746;19.678;2023-04-25T05:08:14;6.95;;;6.32;;
42978;SDS011;28616;44.746;19.678;2023-04-25T05:10:40;6.72;;;6.13;;
42978;SDS011;28616;44.746;19.678;2023-04-25T05:13:06;13.10;;;7.90;;
42978;SDS011;28616;44.746;19.678;2023-04-25T05:15:32;11.52;;;6.97;;
42978;SDS011;28616;44.746;19.678;2023-04-25T05:17:58;13.80;;;7.20;;
42978;SDS011;28616;44.746;19.678;2023-04-25T05:20:24;7.93;;;6.85;;
42978;SDS011;28616;44.746;19.678;2023-04-25T05:22:53;16.48;;;7.50;;
42978;SDS011;28616;44.746;19.678;2023-04-25T05:25:19;9.35;;;6.50;;
42978;SDS011;28616;44.746;19.678;2023-04-25T05:27:44;6.18;;;5.63;;
42978;SDS011;28616;44.746;19.678;2023-04-25T05:30:10;6.88;;;5.93;;
42978;SDS011;28616;44.746;19.678;2023-04-25T05:32:36;6.57;;;6.03;;
42978;SDS011;28616;44.746;19.678;2023-04-25T05:35:02;12.38;;;6.40;;
42978;SDS011;28616;44.746;19.678;2023-04-25T05:37:28;8.13;;;6.80;;
42978;SDS011;28616;44.746;19.678;2023-04-25T05:39:56;6.15;;;5.65;;
42978;SDS011;28616;44.746;19.678;2023-04-25T05:42:22;5.80;;;5.30;;
42978;SDS011;28616;44.746;19.678;2023-04-25T05:44:47;5.80;;;5.30;;
42978;SDS011;28616;44.746;19.678;2023-04-25T05:47:13;7.03;;;6.40;;
42978;SDS011;28616;44.746;19.678;2023-04-25T05:49:39;9.52;;;6.70;;
42978;SDS011;28616;44.746;19.678;2023-04-25T05:52:05;8.70;;;6.82;;
42978;SDS011;28616;44.746;19.678;2023-04-25T05:54:30;6.70;;;6.10;;
42978;SDS011;28616;44.746;19.678;2023-04-25T05:56:56;7.85;;;7.07;;
42978;SDS011;28616;44.746;19.678;2023-04-25T05:59:22;6.43;;;5.90;;
42978;SDS011;28616;44.746;19.678;2023-04-25T06:01:48;6.40;;;5.80;;
42978;SDS011;28616;44.746;19.678;2023-04-25T06:04:14;6.70;;;5.63;;
42978;SDS011;28616;44.746;19.678;2023-04-25T06:06:40;7.47;;;6.10;;
42978;SDS011;28616;44.746;19.678;2023-04-25T06:09:06;7.00;;;6.40;;
42978;SDS011;28616;44.746;19.678;2023-04-25T06:11:31;5.65;;;5.15;;
42978;SDS011;28616;44.746;19.678;2023-04-25T06:13:57;8.10;;;5.97;;
42978;SDS011;28616;44.746;19.678;2023-04-25T06:16:23;5.32;;;4.90;;
42978;SDS011;28616;44.746;19.678;2023-04-25T06:18:50;6.95;;;6.20;;
42978;SDS011;28616;44.746;19.678;2023-04-25T06:21:16;5.35;;;4.95;;
42978;SDS011;28616;44.746;19.678;2023-04-25T06:23:42;6.32;;;5.72;;
42978;SDS011;28616;44.746;19.678;2023-04-25T06:26:08;5.43;;;4.97;;
42978;SDS011;28616;44.746;19.678;2023-04-25T06:28:34;7.25;;;6.50;;
42978;SDS011;28616;44.746;19.678;2023-04-25T06:30:59;6.22;;;4.80;;
42978;SDS011;28616;44.746;19.678;2023-04-25T06:33:25;5.85;;;5.22;;
42978;SDS011;28616;44.746;19.678;2023-04-25T06:35:51;6.38;;;5.75;;
42978;SDS011;28616;44.746;19.678;2023-04-25T06:38:17;8.40;;;4.78;;
42978;SDS011;28616;44.746;19.678;2023-04-25T06:40:43;9.07;;;5.82;;
42978;SDS011;28616;44.746;19.678;2023-04-25T06:43:09;5.72;;;5.18;;
42978;SDS011;28616;44.746;19.678;2023-04-25T06:45:35;6.20;;;5.60;;
42978;SDS011;28616;44.746;19.678;2023-04-25T06:48:01;6.72;;;6.03;;
42978;SDS011;28616;44.746;19.678;2023-04-25T06:50:27;8.80;;;6.22;;
42978;SDS011;28616;44.746;19.678;2023-04-25T06:52:53;5.45;;;4.95;;
42978;SDS011;28616;44.746;19.678;2023-04-25T06:55:19;6.57;;;5.85;;
42978;SDS011;28616;44.746;19.678;2023-04-25T06:57:44;6.07;;;5.30;;
42978;SDS011;28616;44.746;19.678;2023-04-25T07:00:10;5.47;;;4.97;;
42978;SDS011;28616;44.746;19.678;2023-04-25T07:02:37;5.70;;;4.78;;
42978;SDS011;28616;44.746;19.678;2023-04-25T07:05:03;7.25;;;5.15;;
42978;SDS011;28616;44.746;19.678;2023-04-25T07:07:29;8.20;;;5.65;;
42978;SDS011;28616;44.746;19.678;2023-04-25T07:09:55;7.13;;;5.40;;
42978;SDS011;28616;44.746;19.678;2023-04-25T07:12:21;5.68;;;4.68;;
42978;SDS011;28616;44.746;19.678;2023-04-25T07:14:47;10.40;;;5.18;;
42978;SDS011;28616;44.746;19.678;2023-04-25T07:17:13;6.22;;;4.43;;
42978;SDS011;28616;44.746;19.678;2023-04-25T07:19:39;5.47;;;4.97;;
42978;SDS011;28616;44.746;19.678;2023-04-25T07:22:05;5.28;;;4.80;;
42978;SDS011;28616;44.746;19.678;2023-04-25T07:24:31;5.65;;;4.85;;
42978;SDS011;28616;44.746;19.678;2023-04-25T07:26:57;8.93;;;4.55;;
42978;SDS011;28616;44.746;19.678;2023-04-25T07:29:40;6.65;;;4.60;;
42978;SDS011;28616;44.746;19.678;2023-04-25T07:32:07;9.57;;;4.10;;
42978;SDS011;28616;44.746;19.678;2023-04-25T07:34:33;5.25;;;4.30;;
42978;SDS011;28616;44.746;19.678;2023-04-25T07:37:02;5.93;;;4.50;;
42978;SDS011;28616;44.746;19.678;2023-04-25T07:39:28;10.50;;;6.15;;
42978;SDS011;28616;44.746;19.678;2023-04-25T07:41:53;25.92;;;11.93;;
42978;SDS011;28616;44.746;19.678;2023-04-25T07:44:19;21.35;;;11.18;;
42978;SDS011;28616;44.746;19.678;2023-04-25T07:46:45;19.58;;;11.02;;
42978;SDS011;28616;44.746;19.678;2023-04-25T07:49:11;7.05;;;5.55;;
42978;SDS011;28616;44.746;19.678;2023-04-25T07:51:37;16.92;;;8.77;;
42978;SDS011;28616;44.746;19.678;2023-04-25T07:54:03;15.80;;;8.13;;
42978;SDS011;28616;44.746;19.678;2023-04-25T07:56:30;10.52;;;6.40;;
42978;SDS011;28616;44.746;19.678;2023-04-25T07:58:56;31.67;;;14.73;;
42978;SDS011;28616;44.746;19.678;2023-04-25T08:01:22;22.70;;;12.50;;
42978;SDS011;28616;44.746;19.678;2023-04-25T08:03:48;9.70;;;6.53;;
42978;SDS011;28616;44.746;19.678;2023-04-25T08:06:13;6.72;;;5.35;;
42978;SDS011;28616;44.746;19.678;2023-04-25T08:08:39;6.22;;;4.72;;
42978;SDS011;28616;44.746;19.678;2023-04-25T08:11:46;8.05;;;5.93;;
42978;SDS011;28616;44.746;19.678;2023-04-25T08:14:13;11.95;;;7.97;;
42978;SDS011;28616;44.746;19.678;2023-04-25T08:16:39;10.25;;;7.90;;
42978;SDS011;28616;44.746;19.678;2023-04-25T08:19:05;6.68;;;5.82;;
42978;SDS011;28616;44.746;19.678;2023-04-25T08:21:31;5.35;;;4.85;;
42978;SDS011;28616;44.746;19.678;2023-04-25T08:23:57;5.43;;;4.93;;
42978;SDS011;28616;44.746;19.678;2023-04-25T08:26:23;4.93;;;4.50;;
42978;SDS011;28616;44.746;19.678;2023-04-25T08:28:50;6.07;;;5.35;;
42978;SDS011;28616;44.746;19.678;2023-04-25T08:31:16;5.25;;;4.85;;
42978;SDS011;28616;44.746;19.678;2023-04-25T08:33:42;4.63;;;4.20;;
42978;SDS011;28616;44.746;19.678;2023-04-25T08:36:08;4.38;;;3.97;;
42978;SDS011;28616;44.746;19.678;2023-04-25T08:38:34;5.38;;;4.88;;
42978;SDS011;28616;44.746;19.678;2023-04-25T08:41:01;8.88;;;6.13;;
42978;SDS011;28616;44.746;19.678;2023-04-25T08:43:28;7.30;;;6.00;;
42978;SDS011;28616;44.746;19.678;2023-04-25T08:45:57;8.10;;;6.20;;
42978;SDS011;28616;44.746;19.678;2023-04-25T08:48:26;6.25;;;4.40;;
42978;SDS011;28616;44.746;19.678;2023-04-25T08:50:55;4.30;;;3.90;;
42978;SDS011;28616;44.746;19.678;2023-04-25T08:53:22;7.75;;;5.70;;
42978;SDS011;28616;44.746;19.678;2023-04-25T08:55:52;9.75;;;5.53;;
42978;SDS011;28616;44.746;19.678;2023-04-25T08:58:22;8.13;;;5.75;;
42978;SDS011;28616;44.746;19.678;2023-04-25T09:00:49;5.20;;;4.80;;
42978;SDS011;28616;44.746;19.678;2023-04-25T09:03:25;7.75;;;5.03;;
42978;SDS011;28616;44.746;19.678;2023-04-25T09:05:51;5.65;;;5.22;;
42978;SDS011;28616;44.746;19.678;2023-04-25T09:08:17;8.02;;;6.28;;
42978;SDS011;28616;44.746;19.678;2023-04-25T09:10:43;6.85;;;5.57;;
42978;SDS011;28616;44.746;19.678;2023-04-25T09:13:10;6.20;;;5.60;;
42978;SDS011;28616;44.746;19.678;2023-04-25T09:15:48;7.28;;;5.53;;
42978;SDS011;28616;44.746;19.678;2023-04-25T09:18:23;8.98;;;5.18;;
42978;SDS011;28616;44.746;19.678;2023-04-25T09:20:53;5.75;;;5.20;;
42978;SDS011;28616;44.746;19.678;2023-04-25T09:23:22;8.05;;;5.80;;
42978;SDS011;28616;44.746;19.678;2023-04-25T09:25:49;5.22;;;4.80;;
42978;SDS011;28616;44.746;19.678;2023-04-25T09:28:22;5.53;;;5.03;;
42978;SDS011;28616;44.746;19.678;2023-04-25T09:30:54;4.95;;;4.55;;
42978;SDS011;28616;44.746;19.678;2023-04-25T09:35:04;6.70;;;4.90;;
42978;SDS011;28616;44.746;19.678;2023-04-25T09:37:31;5.10;;;4.70;;
42978;SDS011;28616;44.746;19.678;2023-04-25T09:39:57;9.07;;;5.80;;
42978;SDS011;28616;44.746;19.678;2023-04-25T09:42:26;7.43;;;6.05;;
42978;SDS011;28616;44.746;19.678;2023-04-25T09:44:54;5.97;;;5.47;;
42978;SDS011;28616;44.746;19.678;2023-04-25T09:47:22;7.90;;;5.10;;
42978;SDS011;28616;44.746;19.678;2023-04-25T09:49:49;4.90;;;4.60;;
42978;SDS011;28616;44.746;19.678;2023-04-25T09:52:20;5.53;;;5.07;;
42978;SDS011;28616;44.746;19.678;2023-04-25T09:54:47;6.97;;;6.23;;
42978;SDS011;28616;44.746;19.678;2023-04-25T09:57:15;6.05;;;5.20;;
42978;SDS011;28616;44.746;19.678;2023-04-25T10:02:13;5.38;;;4.88;;
42978;SDS011;28616;44.746;19.678;2023-04-25T10:04:44;8.13;;;6.07;;
42978;SDS011;28616;44.746;19.678;2023-04-25T10:07:17;4.32;;;3.95;;
42978;SDS011;28616;44.746;19.678;2023-04-25T10:09:47;5.85;;;5.25;;
42978;SDS011;28616;44.746;19.678;2023-04-25T10:12:15;8.48;;;5.20;;
42978;SDS011;28616;44.746;19.678;2023-04-25T10:14:42;5.07;;;4.50;;
42978;SDS011;28616;44.746;19.678;2023-04-25T10:17:09;13.55;;;7.65;;
42978;SDS011;28616;44.746;19.678;2023-04-25T10:19:36;8.50;;;5.70;;
42978;SDS011;28616;44.746;19.678;2023-04-25T10:22:07;7.63;;;5.78;;
42978;SDS011;28616;44.746;19.678;2023-04-25T10:24:39;5.50;;;4.97;;
42978;SDS011;28616;44.746;19.678;2023-04-25T10:27:06;8.80;;;5.75;;
42978;SDS011;28616;44.746;19.678;2023-04-25T10:29:33;6.07;;;5.50;;
42978;SDS011;28616;44.746;19.678;2023-04-25T10:32:00;6.28;;;5.80;;
42978;SDS011;28616;44.746;19.678;2023-04-25T10:34:43;7.03;;;5.10;;
42978;SDS011;28616;44.746;19.678;2023-04-25T10:37:12;6.65;;;6.15;;
42978;SDS011;28616;44.746;19.678;2023-04-25T10:39:39;6.28;;;5.88;;
42978;SDS011;28616;44.746;19.678;2023-04-25T10:42:11;6.68;;;6.05;;
42978;SDS011;28616;44.746;19.678;2023-04-25T10:44:37;7.30;;;6.60;;
42978;SDS011;28616;44.746;19.678;2023-04-25T10:47:06;6.65;;;6.05;;
42978;SDS011;28616;44.746;19.678;2023-04-25T10:49:41;8.57;;;6.50;;
42978;SDS011;28616;44.746;19.678;2023-04-25T10:52:18;10.60;;;6.93;;
42978;SDS011;28616;44.746;19.678;2023-04-25T10:54:57;9.75;;;6.88;;
42978;SDS011;28616;44.746;19.678;2023-04-25T10:58:05;14.50;;;10.00;;
42978;SDS011;28616;44.746;19.678;2023-04-25T11:00:15;22.63;;;12.55;;
42978;SDS011;28616;44.746;19.678;2023-04-25T11:02:47;7.47;;;6.78;;
42978;SDS011;28616;44.746;19.678;2023-04-25T11:10:19;9.65;;;8.18;;
42978;SDS011;28616;44.746;19.678;2023-04-25T11:12:46;7.80;;;7.25;;
42978;SDS011;28616;44.746;19.678;2023-04-25T11:15:12;10.10;;;8.27;;
42978;SDS011;28616;44.746;19.678;2023-04-25T11:17:38;11.15;;;7.68;;
42978;SDS011;28616;44.746;19.678;2023-04-25T11:20:06;7.78;;;7.05;;
42978;SDS011;28616;44.746;19.678;2023-04-25T11:22:37;10.35;;;8.82;;
42978;SDS011;28616;44.746;19.678;2023-04-25T11:25:06;7.75;;;7.05;;
42978;SDS011;28616;44.746;19.678;2023-04-25T11:27:34;7.30;;;6.70;;
42978;SDS011;28616;44.746;19.678;2023-04-25T11:30:23;6.70;;;6.00;;
42978;SDS011;28616;44.746;19.678;2023-04-25T11:32:50;6.22;;;5.72;;
42978;SDS011;28616;44.746;19.678;2023-04-25T11:35:17;7.95;;;7.15;;
42978;SDS011;28616;44.746;19.678;2023-04-25T11:37:48;6.10;;;5.70;;
42978;SDS011;28616;44.746;19.678;2023-04-25T11:40:14;6.72;;;6.22;;
42978;SDS011;28616;44.746;19.678;2023-04-25T11:42:44;7.28;;;6.68;;
42978;SDS011;28616;44.746;19.678;2023-04-25T11:45:11;6.15;;;5.65;;
42978;SDS011;28616;44.746;19.678;2023-04-25T11:47:37;6.40;;;5.90;;
42978;SDS011;28616;44.746;19.678;2023-04-25T11:50:04;5.45;;;5.00;;
42978;SDS011;28616;44.746;19.678;2023-04-25T11:52:50;5.05;;;4.75;;
42978;SDS011;28616;44.746;19.678;2023-04-25T11:55:18;5.10;;;4.70;;
42978;SDS011;28616;44.746;19.678;2023-04-25T11:57:44;5.95;;;5.47;;
42978;SDS011;28616;44.746;19.678;2023-04-25T12:00:16;5.38;;;4.97;;
42978;SDS011;28616;44.746;19.678;2023-04-25T12:02:55;6.10;;;5.60;;
42978;SDS011;28616;44.746;19.678;2023-04-25T12:05:25;5.40;;;4.95;;
42978;SDS011;28616;44.746;19.678;2023-04-25T12:07:53;5.13;;;4.72;;
42978;SDS011;28616;44.746;19.678;2023-04-25T12:10:19;6.07;;;5.57;;
42978;SDS011;28616;44.746;19.678;2023-04-25T12:12:46;5.50;;;5.10;;
42978;SDS011;28616;44.746;19.678;2023-04-25T12:15:17;5.90;;;5.50;;
42978;SDS011;28616;44.746;19.678;2023-04-25T12:17:48;6.43;;;5.82;;
42978;SDS011;28616;44.746;19.678;2023-04-25T12:20:16;6.20;;;5.80;;
42978;SDS011;28616;44.746;19.678;2023-04-25T12:22:49;6.60;;;6.10;;
42978;SDS011;28616;44.746;19.678;2023-04-25T12:28:15;6.43;;;5.72;;
42978;SDS011;28616;44.746;19.678;2023-04-25T12:33:20;7.13;;;6.63;;
42978;SDS011;28616;44.746;19.678;2023-04-25T12:35:47;7.10;;;6.50;;
42978;SDS011;28616;44.746;19.678;2023-04-25T12:38:46;7.05;;;6.55;;
42978;SDS011;28616;44.746;19.678;2023-04-25T12:41:06;6.28;;;5.88;;
42978;SDS011;28616;44.746;19.678;2023-04-25T12:43:33;7.82;;;6.10;;
42978;SDS011;28616;44.746;19.678;2023-04-25T12:45:58;6.75;;;6.25;;
42978;SDS011;28616;44.746;19.678;2023-04-25T12:48:24;7.82;;;7.07;;
42978;SDS011;28616;44.746;19.678;2023-04-25T12:50:51;6.85;;;6.35;;
42978;SDS011;28616;44.746;19.678;2023-04-25T12:53:22;7.50;;;6.72;;
42978;SDS011;28616;44.746;19.678;2023-04-25T12:55:50;7.65;;;7.07;;
42978;SDS011;28616;44.746;19.678;2023-04-25T12:58:17;7.13;;;6.72;;
42978;SDS011;28616;44.746;19.678;2023-04-25T13:00:44;6.82;;;6.13;;
42978;SDS011;28616;44.746;19.678;2023-04-25T13:03:11;8.85;;;6.65;;
42978;SDS011;28616;44.746;19.678;2023-04-25T13:05:37;6.53;;;6.13;;
42978;SDS011;28616;44.746;19.678;2023-04-25T13:08:04;6.32;;;5.93;;
42978;SDS011;28616;44.746;19.678;2023-04-25T13:10:30;7.15;;;6.55;;
42978;SDS011;28616;44.746;19.678;2023-04-25T13:12:56;7.10;;;6.70;;
42978;SDS011;28616;44.746;19.678;2023-04-25T13:15:22;7.72;;;7.13;;
42978;SDS011;28616;44.746;19.678;2023-04-25T13:17:48;7.00;;;6.50;;
42978;SDS011;28616;44.746;19.678;2023-04-25T13:20:14;6.35;;;5.90;;
42978;SDS011;28616;44.746;19.678;2023-04-25T13:22:42;5.85;;;5.45;;
42978;SDS011;28616;44.746;19.678;2023-04-25T13:25:10;6.85;;;6.32;;
42978;SDS011;28616;44.746;19.678;2023-04-25T13:27:36;5.93;;;5.63;;
42978;SDS011;28616;44.746;19.678;2023-04-25T13:31:25;6.07;;;5.53;;
42978;SDS011;28616;44.746;19.678;2023-04-25T13:33:53;6.00;;;5.60;;
42978;SDS011;28616;44.746;19.678;2023-04-25T13:36:18;6.63;;;6.22;;
42978;SDS011;28616;44.746;19.678;2023-04-25T13:38:44;7.60;;;6.90;;
42978;SDS011;28616;44.746;19.678;2023-04-25T13:41:12;5.80;;;5.40;;
42978;SDS011;28616;44.746;19.678;2023-04-25T13:43:42;6.55;;;5.95;;
42978;SDS011;28616;44.746;19.678;2023-04-25T13:46:08;8.07;;;7.32;;
42978;SDS011;28616;44.746;19.678;2023-04-25T13:48:34;6.50;;;6.00;;
42978;SDS011;28616;44.746;19.678;2023-04-25T13:51:00;5.57;;;5.18;;
42978;SDS011;28616;44.746;19.678;2023-04-25T13:53:26;5.90;;;5.50;;
42978;SDS011;28616;44.746;19.678;2023-04-25T13:55:52;5.63;;;5.22;;
42978;SDS011;28616;44.746;19.678;2023-04-25T13:58:18;6.05;;;5.50;;
42978;SDS011;28616;44.746;19.678;2023-04-25T14:00:45;5.90;;;5.40;;
42978;SDS011;28616;44.746;19.678;2023-04-25T14:03:11;6.70;;;4.70;;
42978;SDS011;28616;44.746;19.678;2023-04-25T14:05:37;6.18;;;5.18;;
42978;SDS011;28616;44.746;19.678;2023-04-25T14:08:04;8.10;;;5.80;;
42978;SDS011;28616;44.746;19.678;2023-04-25T14:10:33;8.45;;;5.50;;
42978;SDS011;28616;44.746;19.678;2023-04-25T14:13:00;5.82;;;5.22;;
42978;SDS011;28616;44.746;19.678;2023-04-25T14:15:26;9.05;;;4.32;;
42978;SDS011;28616;44.746;19.678;2023-04-25T14:17:52;7.07;;;6.38;;
42978;SDS011;28616;44.746;19.678;2023-04-25T14:20:17;5.97;;;5.38;;
42978;SDS011;28616;44.746;19.678;2023-04-25T14:22:46;7.13;;;5.75;;
42978;SDS011;28616;44.746;19.678;2023-04-25T14:25:12;5.28;;;4.88;;
42978;SDS011;28616;44.746;19.678;2023-04-25T14:27:38;5.50;;;5.05;;
42978;SDS011;28616;44.746;19.678;2023-04-25T14:30:04;6.20;;;5.55;;
42978;SDS011;28616;44.746;19.678;2023-04-25T14:32:30;12.40;;;8.55;;
42978;SDS011;28616;44.746;19.678;2023-04-25T14:34:57;20.20;;;10.43;;
42978;SDS011;28616;44.746;19.678;2023-04-25T14:37:22;18.10;;;10.40;;
42978;SDS011;28616;44.746;19.678;2023-04-25T14:39:48;22.73;;;11.32;;
42978;SDS011;28616;44.746;19.678;2023-04-25T14:42:14;21.33;;;12.35;;
42978;SDS011;28616;44.746;19.678;2023-04-25T14:44:40;31.17;;;15.18;;
42978;SDS011;28616;44.746;19.678;2023-04-25T14:47:05;9.18;;;6.95;;
42978;SDS011;28616;44.746;19.678;2023-04-25T14:49:32;23.55;;;12.32;;
42978;SDS011;28616;44.746;19.678;2023-04-25T14:51:58;18.20;;;10.95;;
42978;SDS011;28616;44.746;19.678;2023-04-25T14:54:24;13.95;;;9.95;;
42978;SDS011;28616;44.746;19.678;2023-04-25T14:56:50;9.25;;;7.55;;
42978;SDS011;28616;44.746;19.678;2023-04-25T14:59:16;7.78;;;7.07;;
42978;SDS011;28616;44.746;19.678;2023-04-25T15:01:42;17.83;;;10.55;;
42978;SDS011;28616;44.746;19.678;2023-04-25T15:04:08;19.10;;;12.90;;